sensor_id;sensor_type;location;lat;lon;timestamp;temperature;humidity
35463;DHT22;21578;47.892;9.970;2023-01-16T00:02:02;0.60;96.60
35463;DHT22;21578;47.892;9.970;2023-01-16T00:06:49;0.70;96.60
35463;DHT22;21578;47.892;9.970;2023-01-16T00:11:37;0.70;96.60
35463;DHT22;21578;47.892;9.970;2023-01-16T00:16:25;0.80;96.60
35463;DHT22;21578;47.892;9.970;2023-01-16T00:21:12;0.70;96.60
35463;DHT22;21578;47.892;9.970;2023-01-16T00:25:59;0.70;96.60
35463;DHT22;21578;47.892;9.970;2023-01-16T00:30:47;0.70;96.60
35463;DHT22;21578;47.892;9.970;2023-01-16T00:35:34;0.60;96.60
35463;DHT22;21578;47.892;9.970;2023-01-16T00:40:22;0.70;96.60
35463;DHT22;21578;47.892;9.970;2023-01-16T00:45:10;0.70;96.60
35463;DHT22;21578;47.892;9.970;2023-01-16T00:49:58;0.70;96.60
35463;DHT22;21578;47.892;9.970;2023-01-16T00:54:45;0.70;96.60
35463;DHT22;21578;47.892;9.970;2023-01-16T00:59:33;0.70;96.60
35463;DHT22;21578;47.892;9.970;2023-01-16T01:04:20;0.60;96.60
35463;DHT22;21578;47.892;9.970;2023-01-16T01:09:08;0.60;96.60
35463;DHT22;21578;47.892;9.970;2023-01-16T01:13:55;0.50;96.60
35463;DHT22;21578;47.892;9.970;2023-01-16T01:18:42;0.50;96.60
35463;DHT22;21578;47.892;9.970;2023-01-16T01:23:29;0.50;96.60
35463;DHT22;21578;47.892;9.970;2023-01-16T01:28:18;0.50;96.60
35463;DHT22;21578;47.892;9.970;2023-01-16T01:33:05;0.50;96.60
35463;DHT22;21578;47.892;9.970;2023-01-16T01:37:54;0.50;96.60
35463;DHT22;21578;47.892;9.970;2023-01-16T01:42:41;0.50;96.60
35463;DHT22;21578;47.892;9.970;2023-01-16T01:47:33;0.40;96.60
35463;DHT22;21578;47.892;9.970;2023-01-16T01:52:21;0.30;96.60
35463;DHT22;21578;47.892;9.970;2023-01-16T01:57:12;0.30;96.60
35463;DHT22;21578;47.892;9.970;2023-01-16T02:02:02;0.30;96.60
35463;DHT22;21578;47.892;9.970;2023-01-16T02:06:55;0.30;96.60
35463;DHT22;21578;47.892;9.970;2023-01-16T02:11:46;0.30;96.60
35463;DHT22;21578;47.892;9.970;2023-01-16T02:16:36;0.30;96.60
35463;DHT22;21578;47.892;9.970;2023-01-16T02:22:07;0.20;96.60
35463;DHT22;21578;47.892;9.970;2023-01-16T02:27:12;0.20;96.60
35463;DHT22;21578;47.892;9.970;2023-01-16T02:32:14;0.10;96.60
35463;DHT22;21578;47.892;9.970;2023-01-16T02:37:11;0.10;96.60
35463;DHT22;21578;47.892;9.970;2023-01-16T02:42:08;0.10;96.60
35463;DHT22;21578;47.892;9.970;2023-01-16T02:47:05;0.10;96.60
35463;DHT22;21578;47.892;9.970;2023-01-16T02:51:58;0.00;96.60
35463;DHT22;21578;47.892;9.970;2023-01-16T02:56:53;0.00;96.60
35463;DHT22;21578;47.892;9.970;2023-01-16T03:01:44;0.00;96.60
35463;DHT22;21578;47.892;9.970;2023-01-16T03:06:41;0.00;96.60
35463;DHT22;21578;47.892;9.970;2023-01-16T03:11:32;-0.10;96.60
35463;DHT22;21578;47.892;9.970;2023-01-16T03:16:28;-0.10;96.60
35463;DHT22;21578;47.892;9.970;2023-01-16T03:21:20;-0.10;96.60
35463;DHT22;21578;47.892;9.970;2023-01-16T03:26:14;-0.10;96.60
35463;DHT22;21578;47.892;9.970;2023-01-16T03:31:11;-0.10;96.60
35463;DHT22;21578;47.892;9.970;2023-01-16T03:36:03;-0.10;96.60
35463;DHT22;21578;47.892;9.970;2023-01-16T03:40:51;-0.10;96.60
35463;DHT22;21578;47.892;9.970;2023-01-16T03:45:41;-0.10;96.60
35463;DHT22;21578;47.892;9.970;2023-01-16T03:50:32;-0.10;96.60
35463;DHT22;21578;47.892;9.970;2023-01-16T03:55:25;-0.10;96.60
35463;DHT22;21578;47.892;9.970;2023-01-16T04:00:14;-0.20;96.60
35463;DHT22;21578;47.892;9.970;2023-01-16T04:05:06;-0.10;96.60
35463;DHT22;21578;47.892;9.970;2023-01-16T04:09:57;-0.10;96.60
35463;DHT22;21578;47.892;9.970;2023-01-16T04:14:47;-0.10;96.60
35463;DHT22;21578;47.892;9.970;2023-01-16T04:19:35;-0.10;96.60
35463;DHT22;21578;47.892;9.970;2023-01-16T04:24:23;-0.10;96.60
35463;DHT22;21578;47.892;9.970;2023-01-16T04:29:11;-0.10;96.60
35463;DHT22;21578;47.892;9.970;2023-01-16T04:33:58;-0.20;96.60
35463;DHT22;21578;47.892;9.970;2023-01-16T04:38:45;-0.30;96.60
35463;DHT22;21578;47.892;9.970;2023-01-16T04:43:32;-0.30;96.60
35463;DHT22;21578;47.892;9.970;2023-01-16T04:48:20;-0.30;96.60
35463;DHT22;21578;47.892;9.970;2023-01-16T04:53:07;-0.30;96.60
35463;DHT22;21578;47.892;9.970;2023-01-16T04:57:55;-0.40;96.60
35463;DHT22;21578;47.892;9.970;2023-01-16T05:02:42;-0.40;96.60
35463;DHT22;21578;47.892;9.970;2023-01-16T05:07:31;-0.40;96.60
35463;DHT22;21578;47.892;9.970;2023-01-16T05:12:17;-0.30;96.60
35463;DHT22;21578;47.892;9.970;2023-01-16T05:17:04;-0.20;96.60
35463;DHT22;21578;47.892;9.970;2023-01-16T05:21:51;-0.20;96.60
35463;DHT22;21578;47.892;9.970;2023-01-16T05:26:40;-0.30;96.60
35463;DHT22;21578;47.892;9.970;2023-01-16T05:31:27;-0.30;96.60
35463;DHT22;21578;47.892;9.970;2023-01-16T05:36:13;-0.20;96.60
35463;DHT22;21578;47.892;9.970;2023-01-16T05:41:00;-0.20;96.60
35463;DHT22;21578;47.892;9.970;2023-01-16T05:45:49;-0.10;96.60
35463;DHT22;21578;47.892;9.970;2023-01-16T05:50:36;-0.10;96.60
35463;DHT22;21578;47.892;9.970;2023-01-16T05:55:22;0.20;96.60
35463;DHT22;21578;47.892;9.970;2023-01-16T06:00:10;0.10;96.60
35463;DHT22;21578;47.892;9.970;2023-01-16T06:04:59;0.10;96.60
35463;DHT22;21578;47.892;9.970;2023-01-16T06:09:45;0.00;96.60
35463;DHT22;21578;47.892;9.970;2023-01-16T06:14:32;0.00;96.60
35463;DHT22;21578;47.892;9.970;2023-01-16T06:19:19;0.00;96.60
35463;DHT22;21578;47.892;9.970;2023-01-16T06:24:08;0.10;96.60
35463;DHT22;21578;47.892;9.970;2023-01-16T06:28:55;0.10;96.60
35463;DHT22;21578;47.892;9.970;2023-01-16T06:33:42;0.10;96.60
35463;DHT22;21578;47.892;9.970;2023-01-16T06:38:29;0.20;96.60
35463;DHT22;21578;47.892;9.970;2023-01-16T06:43:18;0.20;96.60
35463;DHT22;21578;47.892;9.970;2023-01-16T06:48:05;0.20;96.60
35463;DHT22;21578;47.892;9.970;2023-01-16T06:52:52;0.20;96.60
35463;DHT22;21578;47.892;9.970;2023-01-16T06:57:39;0.10;96.60
35463;DHT22;21578;47.892;9.970;2023-01-16T07:02:27;0.10;96.60
35463;DHT22;21578;47.892;9.970;2023-01-16T07:07:14;0.10;96.10
35463;DHT22;21578;47.892;9.970;2023-01-16T07:12:01;0.20;94.40
35463;DHT22;21578;47.892;9.970;2023-01-16T07:16:47;0.30;93.30
35463;DHT22;21578;47.892;9.970;2023-01-16T07:21:53;0.20;93.80
35463;DHT22;21578;47.892;9.970;2023-01-16T07:27:00;0.20;94.10
35463;DHT22;21578;47.892;9.970;2023-01-16T07:31:49;0.10;94.30
35463;DHT22;21578;47.892;9.970;2023-01-16T07:36:36;0.10;94.50
35463;DHT22;21578;47.892;9.970;2023-01-16T07:41:25;0.10;94.50
35463;DHT22;21578;47.892;9.970;2023-01-16T07:46:11;0.20;92.70
35463;DHT22;21578;47.892;9.970;2023-01-16T07:50:59;0.30;92.60
35463;DHT22;21578;47.892;9.970;2023-01-16T07:55:46;0.40;92.50
35463;DHT22;21578;47.892;9.970;2023-01-16T08:00:35;0.40;92.80
35463;DHT22;21578;47.892;9.970;2023-01-16T08:10:11;0.50;93.10
35463;DHT22;21578;47.892;9.970;2023-01-16T08:14:58;0.50;93.30
35463;DHT22;21578;47.892;9.970;2023-01-16T08:19:46;0.50;93.10
35463;DHT22;21578;47.892;9.970;2023-01-16T08:24:33;0.60;92.20
35463;DHT22;21578;47.892;9.970;2023-01-16T08:29:21;0.60;92.80
35463;DHT22;21578;47.892;9.970;2023-01-16T08:34:08;0.60;93.10
35463;DHT22;21578;47.892;9.970;2023-01-16T08:38:57;0.70;92.60
35463;DHT22;21578;47.892;9.970;2023-01-16T08:43:45;0.70;92.30
35463;DHT22;21578;47.892;9.970;2023-01-16T08:48:49;0.70;92.30
35463;DHT22;21578;47.892;9.970;2023-01-16T08:53:56;0.70;92.50
35463;DHT22;21578;47.892;9.970;2023-01-16T08:58:43;0.80;93.00
35463;DHT22;21578;47.892;9.970;2023-01-16T09:03:30;0.90;92.60
35463;DHT22;21578;47.892;9.970;2023-01-16T09:08:19;1.00;91.30
35463;DHT22;21578;47.892;9.970;2023-01-16T09:13:07;1.10;91.30
35463;DHT22;21578;47.892;9.970;2023-01-16T09:18:12;1.40;90.80
35463;DHT22;21578;47.892;9.970;2023-01-16T09:23:00;1.50;89.60
35463;DHT22;21578;47.892;9.970;2023-01-16T09:27:47;1.50;89.00
35463;DHT22;21578;47.892;9.970;2023-01-16T09:32:35;1.50;88.60
35463;DHT22;21578;47.892;9.970;2023-01-16T09:37:23;1.60;89.50
35463;DHT22;21578;47.892;9.970;2023-01-16T09:42:37;1.60;89.60
35463;DHT22;21578;47.892;9.970;2023-01-16T09:47:51;1.60;89.20
35463;DHT22;21578;47.892;9.970;2023-01-16T09:52:41;1.70;90.60
35463;DHT22;21578;47.892;9.970;2023-01-16T09:57:49;1.80;90.90
35463;DHT22;21578;47.892;9.970;2023-01-16T10:02:55;1.90;90.50
35463;DHT22;21578;47.892;9.970;2023-01-16T10:07:49;2.00;92.60
35463;DHT22;21578;47.892;9.970;2023-01-16T10:12:38;2.00;94.20
35463;DHT22;21578;47.892;9.970;2023-01-16T10:17:33;2.00;94.00
35463;DHT22;21578;47.892;9.970;2023-01-16T10:22:37;2.00;93.10
35463;DHT22;21578;47.892;9.970;2023-01-16T10:27:34;2.00;93.10
35463;DHT22;21578;47.892;9.970;2023-01-16T10:32:26;1.80;93.50
35463;DHT22;21578;47.892;9.970;2023-01-16T10:37:15;1.90;93.60
35463;DHT22;21578;47.892;9.970;2023-01-16T10:42:12;1.80;94.50
35463;DHT22;21578;47.892;9.970;2023-01-16T10:47:18;1.80;94.40
35463;DHT22;21578;47.892;9.970;2023-01-16T10:52:23;1.90;95.40
35463;DHT22;21578;47.892;9.970;2023-01-16T10:57:16;2.10;93.80
35463;DHT22;21578;47.892;9.970;2023-01-16T11:02:15;2.30;94.60
35463;DHT22;21578;47.892;9.970;2023-01-16T11:07:13;2.50;93.20
35463;DHT22;21578;47.892;9.970;2023-01-16T11:12:01;2.60;94.30
35463;DHT22;21578;47.892;9.970;2023-01-16T11:17:25;2.70;91.20
35463;DHT22;21578;47.892;9.970;2023-01-16T11:22:29;2.80;90.70
35463;DHT22;21578;47.892;9.970;2023-01-16T11:27:20;2.60;90.00
35463;DHT22;21578;47.892;9.970;2023-01-16T11:32:12;2.30;91.90
35463;DHT22;21578;47.892;9.970;2023-01-16T11:37:03;2.10;95.40
35463;DHT22;21578;47.892;9.970;2023-01-16T11:41:53;2.00;94.90
35463;DHT22;21578;47.892;9.970;2023-01-16T11:46:41;2.00;95.10
35463;DHT22;21578;47.892;9.970;2023-01-16T11:51:31;1.90;96.00
35463;DHT22;21578;47.892;9.970;2023-01-16T11:56:41;1.90;95.40
35463;DHT22;21578;47.892;9.970;2023-01-16T12:01:36;2.00;94.50
35463;DHT22;21578;47.892;9.970;2023-01-16T12:06:52;2.00;94.10
35463;DHT22;21578;47.892;9.970;2023-01-16T12:12:09;2.10;91.60
35463;DHT22;21578;47.892;9.970;2023-01-16T12:17:16;2.20;89.20
35463;DHT22;21578;47.892;9.970;2023-01-16T12:22:09;2.20;89.60
35463;DHT22;21578;47.892;9.970;2023-01-16T12:27:16;2.10;89.60
35463;DHT22;21578;47.892;9.970;2023-01-16T12:32:26;2.20;88.10
35463;DHT22;21578;47.892;9.970;2023-01-16T12:37:29;2.20;90.40
35463;DHT22;21578;47.892;9.970;2023-01-16T12:42:32;2.30;91.50
35463;DHT22;21578;47.892;9.970;2023-01-16T12:47:47;2.30;94.40
35463;DHT22;21578;47.892;9.970;2023-01-16T12:52:51;2.40;94.50
35463;DHT22;21578;47.892;9.970;2023-01-16T12:57:57;2.40;94.40
35463;DHT22;21578;47.892;9.970;2023-01-16T13:02:52;2.30;94.30
35463;DHT22;21578;47.892;9.970;2023-01-16T13:07:45;2.20;95.40
35463;DHT22;21578;47.892;9.970;2023-01-16T13:12:37;2.20;95.90
35463;DHT22;21578;47.892;9.970;2023-01-16T13:17:47;2.20;96.20
35463;DHT22;21578;47.892;9.970;2023-01-16T13:22:41;2.20;96.60
35463;DHT22;21578;47.892;9.970;2023-01-16T13:27:36;2.00;96.60
35463;DHT22;21578;47.892;9.970;2023-01-16T13:32:27;1.90;96.60
35463;DHT22;21578;47.892;9.970;2023-01-16T13:37:34;1.90;96.60
35463;DHT22;21578;47.892;9.970;2023-01-16T13:42:27;1.90;96.60
35463;DHT22;21578;47.892;9.970;2023-01-16T13:47:20;1.80;96.60
35463;DHT22;21578;47.892;9.970;2023-01-16T13:52:18;1.80;96.60
35463;DHT22;21578;47.892;9.970;2023-01-16T13:57:14;1.80;96.60
35463;DHT22;21578;47.892;9.970;2023-01-16T14:02:22;1.90;96.60
35463;DHT22;21578;47.892;9.970;2023-01-16T14:13:02;1.90;96.60
35463;DHT22;21578;47.892;9.970;2023-01-16T14:18:13;2.10;96.40
35463;DHT22;21578;47.892;9.970;2023-01-16T14:23:01;2.10;96.60
35463;DHT22;21578;47.892;9.970;2023-01-16T14:28:16;2.10;96.60
35463;DHT22;21578;47.892;9.970;2023-01-16T14:33:04;2.20;96.60
35463;DHT22;21578;47.892;9.970;2023-01-16T14:37:58;2.20;96.60
35463;DHT22;21578;47.892;9.970;2023-01-16T14:42:48;2.10;96.60
35463;DHT22;21578;47.892;9.970;2023-01-16T14:48:04;2.10;96.60
35463;DHT22;21578;47.892;9.970;2023-01-16T14:53:20;2.10;96.60
35463;DHT22;21578;47.892;9.970;2023-01-16T14:58:32;2.20;96.60
35463;DHT22;21578;47.892;9.970;2023-01-16T15:03:26;2.10;96.60
35463;DHT22;21578;47.892;9.970;2023-01-16T15:08:16;2.00;96.60
35463;DHT22;21578;47.892;9.970;2023-01-16T15:13:23;2.00;96.60
35463;DHT22;21578;47.892;9.970;2023-01-16T15:18:13;2.00;96.60
35463;DHT22;21578;47.892;9.970;2023-01-16T15:23:25;2.00;96.60
35463;DHT22;21578;47.892;9.970;2023-01-16T15:28:22;2.00;95.90
35463;DHT22;21578;47.892;9.970;2023-01-16T15:33:26;1.90;96.60
35463;DHT22;21578;47.892;9.970;2023-01-16T15:38:36;2.00;96.60
35463;DHT22;21578;47.892;9.970;2023-01-16T15:43:23;2.20;96.30
35463;DHT22;21578;47.892;9.970;2023-01-16T15:48:38;2.20;94.70
35463;DHT22;21578;47.892;9.970;2023-01-16T15:53:31;2.20;95.00
35463;DHT22;21578;47.892;9.970;2023-01-16T15:58:22;2.20;92.80
35463;DHT22;21578;47.892;9.970;2023-01-16T16:03:14;2.20;92.80
35463;DHT22;21578;47.892;9.970;2023-01-16T16:08:06;2.30;90.00
35463;DHT22;21578;47.892;9.970;2023-01-16T16:12:57;2.50;88.50
35463;DHT22;21578;47.892;9.970;2023-01-16T16:18:00;2.40;89.90
35463;DHT22;21578;47.892;9.970;2023-01-16T16:22:47;2.40;89.40
35463;DHT22;21578;47.892;9.970;2023-01-16T16:27:34;2.50;89.50
35463;DHT22;21578;47.892;9.970;2023-01-16T16:32:21;2.50;89.40
35463;DHT22;21578;47.892;9.970;2023-01-16T16:37:10;2.60;87.20
35463;DHT22;21578;47.892;9.970;2023-01-16T16:41:58;2.60;86.20
35463;DHT22;21578;47.892;9.970;2023-01-16T16:47:24;2.60;85.70
35463;DHT22;21578;47.892;9.970;2023-01-16T16:52:30;2.70;85.60
35463;DHT22;21578;47.892;9.970;2023-01-16T16:57:17;2.90;84.30
35463;DHT22;21578;47.892;9.970;2023-01-16T17:02:04;3.00;83.90
35463;DHT22;21578;47.892;9.970;2023-01-16T17:06:53;3.10;85.30
35463;DHT22;21578;47.892;9.970;2023-01-16T17:11:41;3.10;86.00
35463;DHT22;21578;47.892;9.970;2023-01-16T17:16:29;3.10;87.10
35463;DHT22;21578;47.892;9.970;2023-01-16T17:21:17;3.10;88.00
35463;DHT22;21578;47.892;9.970;2023-01-16T17:26:04;3.10;88.70
35463;DHT22;21578;47.892;9.970;2023-01-16T17:30:54;3.10;89.70
35463;DHT22;21578;47.892;9.970;2023-01-16T17:35:43;3.10;90.30
35463;DHT22;21578;47.892;9.970;2023-01-16T17:40:31;3.20;89.90
35463;DHT22;21578;47.892;9.970;2023-01-16T17:45:28;3.10;91.20
35463;DHT22;21578;47.892;9.970;2023-01-16T17:50:35;3.20;91.20
35463;DHT22;21578;47.892;9.970;2023-01-16T17:55:22;3.30;92.40
35463;DHT22;21578;47.892;9.970;2023-01-16T18:00:26;3.30;94.40
35463;DHT22;21578;47.892;9.970;2023-01-16T18:05:13;3.30;95.60
35463;DHT22;21578;47.892;9.970;2023-01-16T18:10:02;3.30;96.60
35463;DHT22;21578;47.892;9.970;2023-01-16T18:14:49;2.40;96.60
35463;DHT22;21578;47.892;9.970;2023-01-16T18:33:42;1.50;96.60
35463;DHT22;21578;47.892;9.970;2023-01-16T18:38:31;1.50;96.60
35463;DHT22;21578;47.892;9.970;2023-01-16T18:43:35;1.50;96.60
35463;DHT22;21578;47.892;9.970;2023-01-16T18:48:41;1.50;96.60
35463;DHT22;21578;47.892;9.970;2023-01-16T18:53:49;1.60;96.60
35463;DHT22;21578;47.892;9.970;2023-01-16T18:58:54;1.60;96.60
35463;DHT22;21578;47.892;9.970;2023-01-16T19:04:00;1.60;96.60
35463;DHT22;21578;47.892;9.970;2023-01-16T19:09:13;1.60;96.60
35463;DHT22;21578;47.892;9.970;2023-01-16T19:14:00;1.60;96.60
35463;DHT22;21578;47.892;9.970;2023-01-16T19:18:51;1.60;96.60
35463;DHT22;21578;47.892;9.970;2023-01-16T19:23:58;1.60;96.60
35463;DHT22;21578;47.892;9.970;2023-01-16T19:28:45;1.60;96.60
35463;DHT22;21578;47.892;9.970;2023-01-16T19:33:32;1.70;96.60
35463;DHT22;21578;47.892;9.970;2023-01-16T19:38:19;1.80;96.60
35463;DHT22;21578;47.892;9.970;2023-01-16T19:43:07;1.80;96.60
35463;DHT22;21578;47.892;9.970;2023-01-16T19:48:12;1.80;96.60
35463;DHT22;21578;47.892;9.970;2023-01-16T19:52:59;1.80;96.60
35463;DHT22;21578;47.892;9.970;2023-01-16T19:57:47;1.80;96.60
35463;DHT22;21578;47.892;9.970;2023-01-16T20:02:35;1.90;96.60
35463;DHT22;21578;47.892;9.970;2023-01-16T20:07:22;1.90;96.60
35463;DHT22;21578;47.892;9.970;2023-01-16T20:12:11;1.90;96.60
35463;DHT22;21578;47.892;9.970;2023-01-16T20:17:12;1.90;96.60
35463;DHT22;21578;47.892;9.970;2023-01-16T20:22:02;1.80;96.60
35463;DHT22;21578;47.892;9.970;2023-01-16T20:26:49;1.80;96.60
35463;DHT22;21578;47.892;9.970;2023-01-16T20:31:37;1.90;96.60
35463;DHT22;21578;47.892;9.970;2023-01-16T20:36:24;1.80;96.60
35463;DHT22;21578;47.892;9.970;2023-01-16T20:41:13;1.80;96.60
35463;DHT22;21578;47.892;9.970;2023-01-16T20:46:21;1.80;96.60
35463;DHT22;21578;47.892;9.970;2023-01-16T20:51:08;1.80;96.60
35463;DHT22;21578;47.892;9.970;2023-01-16T20:55:56;1.80;96.60
35463;DHT22;21578;47.892;9.970;2023-01-16T21:00:44;1.80;96.60
35463;DHT22;21578;47.892;9.970;2023-01-16T21:05:32;1.80;96.60
35463;DHT22;21578;47.892;9.970;2023-01-16T21:10:21;1.70;96.60
35463;DHT22;21578;47.892;9.970;2023-01-16T21:15:08;1.70;96.60
35463;DHT22;21578;47.892;9.970;2023-01-16T21:19:57;1.70;96.60
35463;DHT22;21578;47.892;9.970;2023-01-16T21:25:02;1.60;96.60
35463;DHT22;21578;47.892;9.970;2023-01-16T21:29:50;1.60;96.60
35463;DHT22;21578;47.892;9.970;2023-01-16T21:34:38;1.50;96.60
35463;DHT22;21578;47.892;9.970;2023-01-16T21:39:28;1.50;96.60
35463;DHT22;21578;47.892;9.970;2023-01-16T21:44:15;1.50;96.60
35463;DHT22;21578;47.892;9.970;2023-01-16T21:49:19;1.40;96.60
35463;DHT22;21578;47.892;9.970;2023-01-16T21:54:06;1.40;96.60
35463;DHT22;21578;47.892;9.970;2023-01-16T21:58:55;1.40;96.60
35463;DHT22;21578;47.892;9.970;2023-01-16T22:03:43;1.20;96.60
35463;DHT22;21578;47.892;9.970;2023-01-16T22:08:30;1.20;96.60
35463;DHT22;21578;47.892;9.970;2023-01-16T22:13:19;1.20;96.60
35463;DHT22;21578;47.892;9.970;2023-01-16T22:18:25;1.10;96.60
35463;DHT22;21578;47.892;9.970;2023-01-16T22:23:16;1.00;96.60
35463;DHT22;21578;47.892;9.970;2023-01-16T22:28:10;0.90;96.60
35463;DHT22;21578;47.892;9.970;2023-01-16T22:33:01;0.90;96.60
35463;DHT22;21578;47.892;9.970;2023-01-16T22:37:49;0.90;96.60
35463;DHT22;21578;47.892;9.970;2023-01-16T22:42:36;0.90;96.60
35463;DHT22;21578;47.892;9.970;2023-01-16T22:47:23;0.90;96.60
35463;DHT22;21578;47.892;9.970;2023-01-16T22:52:11;1.00;96.60
35463;DHT22;21578;47.892;9.970;2023-01-16T22:57:00;0.90;96.60
35463;DHT22;21578;47.892;9.970;2023-01-16T23:01:47;0.90;96.60
35463;DHT22;21578;47.892;9.970;2023-01-16T23:06:34;1.00;96.60
35463;DHT22;21578;47.892;9.970;2023-01-16T23:11:24;0.90;96.60
35463;DHT22;21578;47.892;9.970;2023-01-16T23:16:14;0.90;96.60
35463;DHT22;21578;47.892;9.970;2023-01-16T23:21:02;0.90;96.60
35463;DHT22;21578;47.892;9.970;2023-01-16T23:25:49;0.90;96.60
35463;DHT22;21578;47.892;9.970;2023-01-16T23:30:36;0.90;96.60
35463;DHT22;21578;47.892;9.970;2023-01-16T23:35:27;0.90;96.60
35463;DHT22;21578;47.892;9.970;2023-01-16T23:40:14;0.80;96.60
35463;DHT22;21578;47.892;9.970;2023-01-16T23:45:01;0.80;96.60
35463;DHT22;21578;47.892;9.970;2023-01-16T23:49:49;0.60;96.60
35463;DHT22;21578;47.892;9.970;2023-01-16T23:54:38;0.60;96.60
35463;DHT22;21578;47.892;9.970;2023-01-16T23:59:26;0.60;96.60
